sensor_id;sensor_type;location;lat;lon;timestamp;P1;durP1;ratioP1;P2;durP2;ratioP2
43891;SDS011;29555;45.350;5.578;2022-08-19T00:00:00;2.47;;;2.30;;
43891;SDS011;29555;45.350;5.578;2022-08-19T00:02:26;2.47;;;2.03;;
43891;SDS011;29555;45.350;5.578;2022-08-19T00:04:54;2.67;;;1.98;;
43891;SDS011;29555;45.350;5.578;2022-08-19T00:07:20;1.42;;;1.33;;
43891;SDS011;29555;45.350;5.578;2022-08-19T00:09:46;2.30;;;1.70;;
43891;SDS011;29555;45.350;5.578;2022-08-19T00:12:12;1.50;;;1.27;;
43891;SDS011;29555;45.350;5.578;2022-08-19T00:14:37;2.28;;;1.40;;
43891;SDS011;29555;45.350;5.578;2022-08-19T00:17:04;4.22;;;1.58;;
43891;SDS011;29555;45.350;5.578;2022-08-19T00:19:31;2.80;;;1.98;;
43891;SDS011;29555;45.350;5.578;2022-08-19T00:21:58;2.17;;;1.77;;
43891;SDS011;29555;45.350;5.578;2022-08-19T00:24:23;3.72;;;2.40;;
43891;SDS011;29555;45.350;5.578;2022-08-19T00:26:51;4.43;;;1.83;;
43891;SDS011;29555;45.350;5.578;2022-08-19T00:29:18;1.52;;;1.42;;
43891;SDS011;29555;45.350;5.578;2022-08-19T00:31:45;3.22;;;2.78;;
43891;SDS011;29555;45.350;5.578;2022-08-19T00:34:15;2.28;;;2.08;;
43891;SDS011;29555;45.350;5.578;2022-08-19T00:36:40;2.63;;;2.25;;
43891;SDS011;29555;45.350;5.578;2022-08-19T00:39:07;1.98;;;1.88;;
43891;SDS011;29555;45.350;5.578;2022-08-19T00:41:33;2.78;;;2.58;;
43891;SDS011;29555;45.350;5.578;2022-08-19T00:44:09;7.00;;;2.75;;
43891;SDS011;29555;45.350;5.578;2022-08-19T00:46:36;5.88;;;1.90;;
43891;SDS011;29555;45.350;5.578;2022-08-19T00:49:06;2.58;;;2.38;;
43891;SDS011;29555;45.350;5.578;2022-08-19T00:51:39;3.90;;;2.63;;
43891;SDS011;29555;45.350;5.578;2022-08-19T00:54:07;2.22;;;1.73;;
43891;SDS011;29555;45.350;5.578;2022-08-19T00:56:34;6.47;;;2.78;;
43891;SDS011;29555;45.350;5.578;2022-08-19T00:59:03;2.35;;;1.67;;
43891;SDS011;29555;45.350;5.578;2022-08-19T01:01:41;11.48;;;2.63;;
43891;SDS011;29555;45.350;5.578;2022-08-19T01:04:07;2.80;;;2.13;;
43891;SDS011;29555;45.350;5.578;2022-08-19T01:06:33;3.00;;;2.35;;
43891;SDS011;29555;45.350;5.578;2022-08-19T01:09:02;2.78;;;2.55;;
43891;SDS011;29555;45.350;5.578;2022-08-19T01:11:28;3.42;;;3.13;;
43891;SDS011;29555;45.350;5.578;2022-08-19T01:13:56;2.58;;;2.33;;
43891;SDS011;29555;45.350;5.578;2022-08-19T01:16:23;3.05;;;2.88;;
43891;SDS011;29555;45.350;5.578;2022-08-19T01:18:51;4.00;;;3.33;;
43891;SDS011;29555;45.350;5.578;2022-08-19T01:24:05;2.28;;;2.05;;
43891;SDS011;29555;45.350;5.578;2022-08-19T01:26:31;3.08;;;2.70;;
43891;SDS011;29555;45.350;5.578;2022-08-19T01:29:02;2.25;;;2.08;;
43891;SDS011;29555;45.350;5.578;2022-08-19T01:31:28;3.42;;;2.97;;
43891;SDS011;29555;45.350;5.578;2022-08-19T01:33:57;4.68;;;3.15;;
43891;SDS011;29555;45.350;5.578;2022-08-19T01:38:54;3.22;;;2.92;;
43891;SDS011;29555;45.350;5.578;2022-08-19T01:41:20;2.97;;;2.67;;
43891;SDS011;29555;45.350;5.578;2022-08-19T01:43:47;3.40;;;3.13;;
43891;SDS011;29555;45.350;5.578;2022-08-19T01:46:12;3.03;;;2.72;;
43891;SDS011;29555;45.350;5.578;2022-08-19T01:48:39;1.73;;;1.63;;
43891;SDS011;29555;45.350;5.578;2022-08-19T01:51:06;10.68;;;2.55;;
43891;SDS011;29555;45.350;5.578;2022-08-19T01:53:33;2.58;;;2.30;;
43891;SDS011;29555;45.350;5.578;2022-08-19T01:55:59;3.22;;;2.63;;
43891;SDS011;29555;45.350;5.578;2022-08-19T01:58:36;2.60;;;2.40;;
43891;SDS011;29555;45.350;5.578;2022-08-19T02:01:05;3.95;;;2.70;;
43891;SDS011;29555;45.350;5.578;2022-08-19T02:03:31;2.22;;;2.13;;
43891;SDS011;29555;45.350;5.578;2022-08-19T02:06:00;1.50;;;1.40;;
43891;SDS011;29555;45.350;5.578;2022-08-19T02:08:30;2.80;;;2.13;;
43891;SDS011;29555;45.350;5.578;2022-08-19T02:10:57;2.28;;;2.05;;
43891;SDS011;29555;45.350;5.578;2022-08-19T02:13:23;1.20;;;1.15;;
43891;SDS011;29555;45.350;5.578;2022-08-19T02:15:50;2.22;;;1.30;;
43891;SDS011;29555;45.350;5.578;2022-08-19T02:18:15;1.77;;;1.67;;
43891;SDS011;29555;45.350;5.578;2022-08-19T02:20:41;1.70;;;1.60;;
43891;SDS011;29555;45.350;5.578;2022-08-19T02:23:09;1.42;;;1.33;;
43891;SDS011;29555;45.350;5.578;2022-08-19T02:25:36;2.85;;;2.03;;
43891;SDS011;29555;45.350;5.578;2022-08-19T02:28:02;1.85;;;1.75;;
43891;SDS011;29555;45.350;5.578;2022-08-19T02:30:28;2.53;;;1.95;;
43891;SDS011;29555;45.350;5.578;2022-08-19T02:32:56;3.05;;;2.17;;
43891;SDS011;29555;45.350;5.578;2022-08-19T02:35:22;4.03;;;2.20;;
43891;SDS011;29555;45.350;5.578;2022-08-19T02:37:48;5.97;;;1.70;;
43891;SDS011;29555;45.350;5.578;2022-08-19T02:40:32;7.95;;;2.63;;
43891;SDS011;29555;45.350;5.578;2022-08-19T02:42:59;5.18;;;2.42;;
43891;SDS011;29555;45.350;5.578;2022-08-19T02:45:35;2.88;;;2.20;;
43891;SDS011;29555;45.350;5.578;2022-08-19T02:48:02;1.88;;;1.77;;
43891;SDS011;29555;45.350;5.578;2022-08-19T02:50:29;9.00;;;2.58;;
43891;SDS011;29555;45.350;5.578;2022-08-19T02:52:54;1.95;;;1.77;;
43891;SDS011;29555;45.350;5.578;2022-08-19T02:55:20;2.50;;;1.65;;
43891;SDS011;29555;45.350;5.578;2022-08-19T02:57:46;2.90;;;2.70;;
43891;SDS011;29555;45.350;5.578;2022-08-19T03:00:11;3.67;;;1.77;;
43891;SDS011;29555;45.350;5.578;2022-08-19T03:02:37;2.58;;;2.05;;
43891;SDS011;29555;45.350;5.578;2022-08-19T03:05:04;1.83;;;1.50;;
43891;SDS011;29555;45.350;5.578;2022-08-19T03:07:30;1.98;;;1.67;;
43891;SDS011;29555;45.350;5.578;2022-08-19T03:09:55;2.75;;;2.33;;
43891;SDS011;29555;45.350;5.578;2022-08-19T03:12:21;7.50;;;1.67;;
43891;SDS011;29555;45.350;5.578;2022-08-19T03:14:46;2.05;;;1.90;;
43891;SDS011;29555;45.350;5.578;2022-08-19T03:17:11;2.03;;;1.83;;
43891;SDS011;29555;45.350;5.578;2022-08-19T03:19:37;2.22;;;1.70;;
43891;SDS011;29555;45.350;5.578;2022-08-19T03:22:03;2.85;;;1.52;;
43891;SDS011;29555;45.350;5.578;2022-08-19T03:24:29;1.92;;;1.55;;
43891;SDS011;29555;45.350;5.578;2022-08-19T03:26:55;1.80;;;1.55;;
43891;SDS011;29555;45.350;5.578;2022-08-19T03:29:23;3.20;;;1.27;;
43891;SDS011;29555;45.350;5.578;2022-08-19T03:31:52;2.13;;;1.27;;
43891;SDS011;29555;45.350;5.578;2022-08-19T03:34:21;1.55;;;1.45;;
43891;SDS011;29555;45.350;5.578;2022-08-19T03:36:51;5.25;;;1.58;;
43891;SDS011;29555;45.350;5.578;2022-08-19T03:39:18;1.30;;;1.20;;
43891;SDS011;29555;45.350;5.578;2022-08-19T03:41:44;2.75;;;1.42;;
43891;SDS011;29555;45.350;5.578;2022-08-19T03:44:17;15.82;;;1.63;;
43891;SDS011;29555;45.350;5.578;2022-08-19T03:46:53;2.08;;;1.55;;
43891;SDS011;29555;45.350;5.578;2022-08-19T03:49:26;2.45;;;2.00;;
43891;SDS011;29555;45.350;5.578;2022-08-19T03:51:54;1.85;;;1.42;;
43891;SDS011;29555;45.350;5.578;2022-08-19T03:54:22;1.52;;;1.10;;
43891;SDS011;29555;45.350;5.578;2022-08-19T03:56:49;4.13;;;1.42;;
43891;SDS011;29555;45.350;5.578;2022-08-19T03:59:17;4.80;;;1.10;;
43891;SDS011;29555;45.350;5.578;2022-08-19T04:01:45;1.17;;;1.10;;
43891;SDS011;29555;45.350;5.578;2022-08-19T04:04:11;3.10;;;2.20;;
43891;SDS011;29555;45.350;5.578;2022-08-19T04:06:37;3.60;;;1.80;;
43891;SDS011;29555;45.350;5.578;2022-08-19T04:09:04;5.50;;;1.60;;
43891;SDS011;29555;45.350;5.578;2022-08-19T04:11:33;2.58;;;1.63;;
43891;SDS011;29555;45.350;5.578;2022-08-19T04:14:01;2.45;;;1.55;;
43891;SDS011;29555;45.350;5.578;2022-08-19T04:16:27;3.00;;;1.98;;
43891;SDS011;29555;45.350;5.578;2022-08-19T04:18:53;1.95;;;1.75;;
43891;SDS011;29555;45.350;5.578;2022-08-19T04:21:21;4.50;;;1.98;;
43891;SDS011;29555;45.350;5.578;2022-08-19T04:23:51;1.95;;;1.85;;
43891;SDS011;29555;45.350;5.578;2022-08-19T04:26:19;1.63;;;1.50;;
43891;SDS011;29555;45.350;5.578;2022-08-19T04:28:46;2.22;;;2.03;;
43891;SDS011;29555;45.350;5.578;2022-08-19T04:31:16;3.97;;;1.70;;
43891;SDS011;29555;45.350;5.578;2022-08-19T04:33:46;2.13;;;1.92;;
43891;SDS011;29555;45.350;5.578;2022-08-19T04:36:18;2.53;;;1.75;;
43891;SDS011;29555;45.350;5.578;2022-08-19T04:38:49;1.77;;;1.67;;
43891;SDS011;29555;45.350;5.578;2022-08-19T04:41:17;3.05;;;2.75;;
43891;SDS011;29555;45.350;5.578;2022-08-19T04:44:01;2.50;;;2.00;;
43891;SDS011;29555;45.350;5.578;2022-08-19T04:46:27;1.83;;;1.73;;
43891;SDS011;29555;45.350;5.578;2022-08-19T04:48:55;4.00;;;2.58;;
43891;SDS011;29555;45.350;5.578;2022-08-19T04:51:21;2.28;;;2.08;;
43891;SDS011;29555;45.350;5.578;2022-08-19T04:53:47;8.32;;;2.45;;
43891;SDS011;29555;45.350;5.578;2022-08-19T04:56:14;2.53;;;1.70;;
43891;SDS011;29555;45.350;5.578;2022-08-19T04:58:42;3.83;;;1.95;;
43891;SDS011;29555;45.350;5.578;2022-08-19T05:01:09;2.13;;;1.90;;
43891;SDS011;29555;45.350;5.578;2022-08-19T05:03:37;4.40;;;2.88;;
43891;SDS011;29555;45.350;5.578;2022-08-19T05:06:07;2.17;;;1.73;;
43891;SDS011;29555;45.350;5.578;2022-08-19T05:08:35;9.43;;;2.20;;
43891;SDS011;29555;45.350;5.578;2022-08-19T05:11:07;3.08;;;2.28;;
43891;SDS011;29555;45.350;5.578;2022-08-19T05:13:36;4.70;;;2.17;;
43891;SDS011;29555;45.350;5.578;2022-08-19T05:16:01;6.40;;;2.35;;
43891;SDS011;29555;45.350;5.578;2022-08-19T05:18:27;5.35;;;2.42;;
43891;SDS011;29555;45.350;5.578;2022-08-19T05:21:12;5.70;;;2.03;;
43891;SDS011;29555;45.350;5.578;2022-08-19T05:23:58;1.65;;;1.55;;
43891;SDS011;29555;45.350;5.578;2022-08-19T05:26:24;1.90;;;1.55;;
43891;SDS011;29555;45.350;5.578;2022-08-19T05:28:53;1.85;;;1.73;;
43891;SDS011;29555;45.350;5.578;2022-08-19T05:31:19;2.95;;;1.63;;
43891;SDS011;29555;45.350;5.578;2022-08-19T05:33:44;12.35;;;3.10;;
43891;SDS011;29555;45.350;5.578;2022-08-19T05:36:10;2.47;;;2.28;;
43891;SDS011;29555;45.350;5.578;2022-08-19T05:38:35;6.93;;;3.42;;
43891;SDS011;29555;45.350;5.578;2022-08-19T05:41:11;5.57;;;2.25;;
43891;SDS011;29555;45.350;5.578;2022-08-19T05:43:37;3.60;;;2.50;;
43891;SDS011;29555;45.350;5.578;2022-08-19T05:46:04;1.95;;;1.65;;
43891;SDS011;29555;45.350;5.578;2022-08-19T05:48:32;1.80;;;1.55;;
43891;SDS011;29555;45.350;5.578;2022-08-19T05:51:03;1.83;;;1.73;;
43891;SDS011;29555;45.350;5.578;2022-08-19T05:53:31;3.35;;;2.55;;
43891;SDS011;29555;45.350;5.578;2022-08-19T05:55:56;3.67;;;2.38;;
43891;SDS011;29555;45.350;5.578;2022-08-19T05:58:21;2.92;;;2.00;;
43891;SDS011;29555;45.350;5.578;2022-08-19T06:00:47;2.65;;;2.33;;
43891;SDS011;29555;45.350;5.578;2022-08-19T06:03:12;5.15;;;2.38;;
43891;SDS011;29555;45.350;5.578;2022-08-19T06:05:37;2.80;;;2.45;;
43891;SDS011;29555;45.350;5.578;2022-08-19T06:08:03;2.97;;;2.67;;
43891;SDS011;29555;45.350;5.578;2022-08-19T06:10:29;4.70;;;2.88;;
43891;SDS011;29555;45.350;5.578;2022-08-19T06:12:54;4.20;;;3.80;;
43891;SDS011;29555;45.350;5.578;2022-08-19T06:15:21;4.32;;;2.72;;
43891;SDS011;29555;45.350;5.578;2022-08-19T06:17:50;3.08;;;2.70;;
43891;SDS011;29555;45.350;5.578;2022-08-19T06:20:15;5.90;;;3.58;;
43891;SDS011;29555;45.350;5.578;2022-08-19T06:22:43;3.00;;;2.53;;
43891;SDS011;29555;45.350;5.578;2022-08-19T06:25:11;6.97;;;3.10;;
43891;SDS011;29555;45.350;5.578;2022-08-19T06:27:38;3.35;;;2.13;;
43891;SDS011;29555;45.350;5.578;2022-08-19T06:30:04;3.08;;;2.78;;
43891;SDS011;29555;45.350;5.578;2022-08-19T06:32:30;5.93;;;3.03;;
43891;SDS011;29555;45.350;5.578;2022-08-19T06:34:56;7.57;;;3.17;;
43891;SDS011;29555;45.350;5.578;2022-08-19T06:37:21;3.15;;;2.83;;
43891;SDS011;29555;45.350;5.578;2022-08-19T06:39:47;4.25;;;2.60;;
43891;SDS011;29555;45.350;5.578;2022-08-19T06:42:14;3.10;;;2.53;;
43891;SDS011;29555;45.350;5.578;2022-08-19T06:44:43;6.75;;;3.78;;
43891;SDS011;29555;45.350;5.578;2022-08-19T06:47:10;9.70;;;2.47;;
43891;SDS011;29555;45.350;5.578;2022-08-19T06:49:38;5.53;;;3.00;;
43891;SDS011;29555;45.350;5.578;2022-08-19T06:52:04;5.05;;;3.45;;
43891;SDS011;29555;45.350;5.578;2022-08-19T06:54:30;3.60;;;3.28;;
43891;SDS011;29555;45.350;5.578;2022-08-19T06:56:56;5.10;;;3.72;;
43891;SDS011;29555;45.350;5.578;2022-08-19T06:59:23;5.15;;;2.05;;
43891;SDS011;29555;45.350;5.578;2022-08-19T07:01:53;3.03;;;2.58;;
43891;SDS011;29555;45.350;5.578;2022-08-19T07:04:25;4.22;;;2.58;;
43891;SDS011;29555;45.350;5.578;2022-08-19T07:07:11;2.75;;;2.22;;
43891;SDS011;29555;45.350;5.578;2022-08-19T07:09:40;2.60;;;2.35;;
43891;SDS011;29555;45.350;5.578;2022-08-19T07:12:08;3.58;;;2.22;;
43891;SDS011;29555;45.350;5.578;2022-08-19T07:14:35;4.70;;;1.95;;
43891;SDS011;29555;45.350;5.578;2022-08-19T07:17:03;3.38;;;1.83;;
43891;SDS011;29555;45.350;5.578;2022-08-19T07:19:30;3.03;;;2.00;;
43891;SDS011;29555;45.350;5.578;2022-08-19T07:21:56;3.22;;;2.45;;
43891;SDS011;29555;45.350;5.578;2022-08-19T07:24:24;3.00;;;2.20;;
43891;SDS011;29555;45.350;5.578;2022-08-19T07:26:51;3.08;;;2.83;;
43891;SDS011;29555;45.350;5.578;2022-08-19T07:29:19;6.40;;;2.20;;
43891;SDS011;29555;45.350;5.578;2022-08-19T07:31:47;3.55;;;3.17;;
43891;SDS011;29555;45.350;5.578;2022-08-19T07:34:14;4.85;;;3.13;;
43891;SDS011;29555;45.350;5.578;2022-08-19T07:36:40;3.75;;;3.45;;
43891;SDS011;29555;45.350;5.578;2022-08-19T07:39:17;2.63;;;2.42;;
43891;SDS011;29555;45.350;5.578;2022-08-19T07:41:46;4.05;;;3.40;;
43891;SDS011;29555;45.350;5.578;2022-08-19T07:44:12;4.40;;;3.42;;
43891;SDS011;29555;45.350;5.578;2022-08-19T07:46:49;3.30;;;3.00;;
43891;SDS011;29555;45.350;5.578;2022-08-19T07:49:19;5.78;;;2.25;;
43891;SDS011;29555;45.350;5.578;2022-08-19T07:51:50;3.47;;;3.13;;
43891;SDS011;29555;45.350;5.578;2022-08-19T07:54:18;2.42;;;2.22;;
43891;SDS011;29555;45.350;5.578;2022-08-19T07:56:45;3.30;;;2.72;;
43891;SDS011;29555;45.350;5.578;2022-08-19T07:59:10;4.18;;;2.83;;
43891;SDS011;29555;45.350;5.578;2022-08-19T08:01:36;4.07;;;2.53;;
43891;SDS011;29555;45.350;5.578;2022-08-19T08:04:04;3.80;;;1.85;;
43891;SDS011;29555;45.350;5.578;2022-08-19T08:06:49;4.10;;;2.13;;
43891;SDS011;29555;45.350;5.578;2022-08-19T08:09:36;2.28;;;1.98;;
43891;SDS011;29555;45.350;5.578;2022-08-19T08:12:10;2.45;;;2.10;;
43891;SDS011;29555;45.350;5.578;2022-08-19T08:14:40;2.50;;;2.30;;
43891;SDS011;29555;45.350;5.578;2022-08-19T08:17:07;2.47;;;2.28;;
43891;SDS011;29555;45.350;5.578;2022-08-19T08:19:33;2.45;;;2.13;;
43891;SDS011;29555;45.350;5.578;2022-08-19T08:22:00;2.42;;;2.22;;
43891;SDS011;29555;45.350;5.578;2022-08-19T08:24:27;2.42;;;2.22;;
43891;SDS011;29555;45.350;5.578;2022-08-19T08:26:53;9.43;;;3.08;;
43891;SDS011;29555;45.350;5.578;2022-08-19T08:29:19;4.00;;;2.78;;
43891;SDS011;29555;45.350;5.578;2022-08-19T08:31:45;4.72;;;3.00;;
43891;SDS011;29555;45.350;5.578;2022-08-19T08:34:12;4.32;;;2.75;;
43891;SDS011;29555;45.350;5.578;2022-08-19T08:36:43;3.47;;;3.13;;
43891;SDS011;29555;45.350;5.578;2022-08-19T08:39:12;4.75;;;3.50;;
43891;SDS011;29555;45.350;5.578;2022-08-19T08:41:53;3.55;;;2.88;;
43891;SDS011;29555;45.350;5.578;2022-08-19T08:44:22;3.47;;;2.95;;
43891;SDS011;29555;45.350;5.578;2022-08-19T08:47:12;3.53;;;3.17;;
43891;SDS011;29555;45.350;5.578;2022-08-19T08:49:44;2.78;;;2.53;;
43891;SDS011;29555;45.350;5.578;2022-08-19T08:52:25;3.80;;;3.35;;
43891;SDS011;29555;45.350;5.578;2022-08-19T08:54:53;4.10;;;3.45;;
43891;SDS011;29555;45.350;5.578;2022-08-19T09:00:17;2.95;;;2.50;;
43891;SDS011;29555;45.350;5.578;2022-08-19T09:02:46;2.00;;;1.90;;
43891;SDS011;29555;45.350;5.578;2022-08-19T09:05:11;2.75;;;2.55;;
43891;SDS011;29555;45.350;5.578;2022-08-19T09:07:43;3.00;;;2.70;;
43891;SDS011;29555;45.350;5.578;2022-08-19T09:10:21;3.00;;;2.65;;
43891;SDS011;29555;45.350;5.578;2022-08-19T09:15:54;3.22;;;2.17;;
43891;SDS011;29555;45.350;5.578;2022-08-19T09:18:57;5.30;;;3.35;;
43891;SDS011;29555;45.350;5.578;2022-08-19T09:21:28;3.35;;;2.15;;
43891;SDS011;29555;45.350;5.578;2022-08-19T09:23:54;2.88;;;2.55;;
43891;SDS011;29555;45.350;5.578;2022-08-19T09:26:21;2.72;;;2.38;;
43891;SDS011;29555;45.350;5.578;2022-08-19T09:28:48;3.78;;;2.80;;
43891;SDS011;29555;45.350;5.578;2022-08-19T09:31:18;3.50;;;2.60;;
43891;SDS011;29555;45.350;5.578;2022-08-19T09:33:46;19.65;;;3.00;;
43891;SDS011;29555;45.350;5.578;2022-08-19T09:36:13;5.97;;;2.38;;
43891;SDS011;29555;45.350;5.578;2022-08-19T09:38:40;7.30;;;2.50;;
43891;SDS011;29555;45.350;5.578;2022-08-19T09:41:07;3.90;;;3.10;;
43891;SDS011;29555;45.350;5.578;2022-08-19T09:43:36;2.50;;;2.30;;
43891;SDS011;29555;45.350;5.578;2022-08-19T09:46:02;3.92;;;3.40;;
43891;SDS011;29555;45.350;5.578;2022-08-19T09:48:30;3.60;;;2.97;;
43891;SDS011;29555;45.350;5.578;2022-08-19T09:51:02;6.55;;;3.42;;
43891;SDS011;29555;45.350;5.578;2022-08-19T09:53:29;3.75;;;3.40;;
43891;SDS011;29555;45.350;5.578;2022-08-19T09:55:55;3.40;;;2.90;;
43891;SDS011;29555;45.350;5.578;2022-08-19T09:58:20;4.53;;;3.33;;
43891;SDS011;29555;45.350;5.578;2022-08-19T10:00:47;2.92;;;2.72;;
43891;SDS011;29555;45.350;5.578;2022-08-19T10:03:13;3.88;;;2.92;;
43891;SDS011;29555;45.350;5.578;2022-08-19T10:05:38;4.00;;;2.67;;
43891;SDS011;29555;45.350;5.578;2022-08-19T10:08:13;4.43;;;2.85;;
43891;SDS011;29555;45.350;5.578;2022-08-19T10:10:38;3.10;;;2.72;;
43891;SDS011;29555;45.350;5.578;2022-08-19T10:13:03;5.07;;;3.75;;
43891;SDS011;29555;45.350;5.578;2022-08-19T10:15:29;3.55;;;2.83;;
43891;SDS011;29555;45.350;5.578;2022-08-19T10:17:55;5.57;;;4.45;;
43891;SDS011;29555;45.350;5.578;2022-08-19T10:20:20;7.65;;;3.65;;
43891;SDS011;29555;45.350;5.578;2022-08-19T10:22:47;5.43;;;3.28;;
43891;SDS011;29555;45.350;5.578;2022-08-19T10:25:13;4.95;;;3.17;;
43891;SDS011;29555;45.350;5.578;2022-08-19T10:27:41;4.53;;;3.90;;
43891;SDS011;29555;45.350;5.578;2022-08-19T10:30:07;4.65;;;4.25;;
43891;SDS011;29555;45.350;5.578;2022-08-19T10:32:34;5.32;;;3.00;;
43891;SDS011;29555;45.350;5.578;2022-08-19T10:34:59;4.82;;;3.22;;
43891;SDS011;29555;45.350;5.578;2022-08-19T10:37:25;4.53;;;3.83;;
43891;SDS011;29555;45.350;5.578;2022-08-19T10:39:51;5.82;;;3.80;;
43891;SDS011;29555;45.350;5.578;2022-08-19T10:42:16;4.05;;;3.47;;
43891;SDS011;29555;45.350;5.578;2022-08-19T10:44:43;6.28;;;3.92;;
43891;SDS011;29555;45.350;5.578;2022-08-19T10:47:09;3.45;;;3.15;;
43891;SDS011;29555;45.350;5.578;2022-08-19T10:49:35;7.20;;;3.95;;
43891;SDS011;29555;45.350;5.578;2022-08-19T10:52:21;10.77;;;4.57;;
43891;SDS011;29555;45.350;5.578;2022-08-19T10:54:59;3.53;;;3.08;;
43891;SDS011;29555;45.350;5.578;2022-08-19T10:57:44;4.75;;;4.30;;
43891;SDS011;29555;45.350;5.578;2022-08-19T11:00:09;6.55;;;3.70;;
43891;SDS011;29555;45.350;5.578;2022-08-19T11:02:36;4.47;;;3.40;;
43891;SDS011;29555;45.350;5.578;2022-08-19T11:05:01;8.38;;;4.32;;
43891;SDS011;29555;45.350;5.578;2022-08-19T11:07:27;5.50;;;3.75;;
43891;SDS011;29555;45.350;5.578;2022-08-19T11:09:52;3.75;;;3.00;;
43891;SDS011;29555;45.350;5.578;2022-08-19T11:12:17;4.05;;;3.38;;
43891;SDS011;29555;45.350;5.578;2022-08-19T11:14:44;4.65;;;3.70;;
43891;SDS011;29555;45.350;5.578;2022-08-19T11:17:12;5.35;;;3.83;;
43891;SDS011;29555;45.350;5.578;2022-08-19T11:19:39;2.88;;;2.67;;
43891;SDS011;29555;45.350;5.578;2022-08-19T11:22:06;5.35;;;4.65;;
43891;SDS011;29555;45.350;5.578;2022-08-19T11:24:33;4.88;;;2.97;;
43891;SDS011;29555;45.350;5.578;2022-08-19T11:27:05;3.67;;;2.75;;
43891;SDS011;29555;45.350;5.578;2022-08-19T11:29:34;4.00;;;3.55;;
43891;SDS011;29555;45.350;5.578;2022-08-19T11:32:03;14.93;;;3.72;;
43891;SDS011;29555;45.350;5.578;2022-08-19T11:34:30;11.35;;;3.83;;
43891;SDS011;29555;45.350;5.578;2022-08-19T11:36:56;6.32;;;4.10;;
43891;SDS011;29555;45.350;5.578;2022-08-19T11:39:26;3.65;;;3.00;;
43891;SDS011;29555;45.350;5.578;2022-08-19T11:41:53;3.75;;;3.40;;
43891;SDS011;29555;45.350;5.578;2022-08-19T11:44:18;4.57;;;3.50;;
43891;SDS011;29555;45.350;5.578;2022-08-19T11:46:44;3.30;;;3.00;;
43891;SDS011;29555;45.350;5.578;2022-08-19T11:49:12;4.97;;;3.55;;
43891;SDS011;29555;45.350;5.578;2022-08-19T11:51:39;3.67;;;3.38;;
43891;SDS011;29555;45.350;5.578;2022-08-19T11:54:07;3.85;;;3.17;;
43891;SDS011;29555;45.350;5.578;2022-08-19T11:56:33;8.50;;;4.28;;
43891;SDS011;29555;45.350;5.578;2022-08-19T11:58:58;11.65;;;3.97;;
43891;SDS011;29555;45.350;5.578;2022-08-19T12:01:26;20.00;;;6.22;;
43891;SDS011;29555;45.350;5.578;2022-08-19T12:03:52;7.22;;;5.85;;
43891;SDS011;29555;45.350;5.578;2022-08-19T12:06:20;10.07;;;6.03;;
43891;SDS011;29555;45.350;5.578;2022-08-19T12:08:56;8.20;;;6.53;;
43891;SDS011;29555;45.350;5.578;2022-08-19T12:11:23;9.60;;;6.30;;
43891;SDS011;29555;45.350;5.578;2022-08-19T12:13:49;11.13;;;8.18;;
43891;SDS011;29555;45.350;5.578;2022-08-19T12:16:19;10.00;;;8.00;;
43891;SDS011;29555;45.350;5.578;2022-08-19T12:18:46;8.18;;;6.80;;
43891;SDS011;29555;45.350;5.578;2022-08-19T12:21:15;9.57;;;7.32;;
43891;SDS011;29555;45.350;5.578;2022-08-19T12:23:42;16.27;;;7.63;;
43891;SDS011;29555;45.350;5.578;2022-08-19T12:26:10;9.02;;;7.03;;
43891;SDS011;29555;45.350;5.578;2022-08-19T12:28:36;13.63;;;8.15;;
43891;SDS011;29555;45.350;5.578;2022-08-19T12:31:03;10.85;;;7.32;;
43891;SDS011;29555;45.350;5.578;2022-08-19T12:33:28;9.68;;;6.93;;
43891;SDS011;29555;45.350;5.578;2022-08-19T12:35:54;11.55;;;8.95;;
43891;SDS011;29555;45.350;5.578;2022-08-19T12:38:25;14.27;;;7.88;;
43891;SDS011;29555;45.350;5.578;2022-08-19T12:40:52;8.85;;;7.32;;
43891;SDS011;29555;45.350;5.578;2022-08-19T12:43:17;13.80;;;8.57;;
43891;SDS011;29555;45.350;5.578;2022-08-19T12:45:44;12.57;;;6.90;;
43891;SDS011;29555;45.350;5.578;2022-08-19T12:48:10;13.52;;;9.02;;
43891;SDS011;29555;45.350;5.578;2022-08-19T12:50:38;9.55;;;8.00;;
43891;SDS011;29555;45.350;5.578;2022-08-19T12:53:05;14.55;;;8.93;;
43891;SDS011;29555;45.350;5.578;2022-08-19T12:55:30;10.07;;;7.35;;
43891;SDS011;29555;45.350;5.578;2022-08-19T12:57:56;10.13;;;7.30;;
43891;SDS011;29555;45.350;5.578;2022-08-19T13:00:21;15.07;;;7.55;;
43891;SDS011;29555;45.350;5.578;2022-08-19T13:02:48;9.35;;;7.45;;
43891;SDS011;29555;45.350;5.578;2022-08-19T13:05:23;11.75;;;8.68;;
43891;SDS011;29555;45.350;5.578;2022-08-19T13:07:50;12.20;;;8.38;;
43891;SDS011;29555;45.350;5.578;2022-08-19T13:10:18;11.07;;;8.38;;
43891;SDS011;29555;45.350;5.578;2022-08-19T13:12:46;13.70;;;8.68;;
43891;SDS011;29555;45.350;5.578;2022-08-19T13:15:13;12.55;;;8.82;;
43891;SDS011;29555;45.350;5.578;2022-08-19T13:17:40;10.88;;;7.38;;
43891;SDS011;29555;45.350;5.578;2022-08-19T13:20:09;8.80;;;7.43;;
43891;SDS011;29555;45.350;5.578;2022-08-19T13:22:36;7.20;;;6.50;;
43891;SDS011;29555;45.350;5.578;2022-08-19T13:25:04;10.30;;;8.80;;
43891;SDS011;29555;45.350;5.578;2022-08-19T13:27:30;12.32;;;8.93;;
43891;SDS011;29555;45.350;5.578;2022-08-19T13:29:56;11.50;;;8.80;;
43891;SDS011;29555;45.350;5.578;2022-08-19T13:32:39;13.80;;;8.48;;
43891;SDS011;29555;45.350;5.578;2022-08-19T13:35:24;13.40;;;9.32;;
43891;SDS011;29555;45.350;5.578;2022-08-19T13:37:50;12.27;;;9.23;;
43891;SDS011;29555;45.350;5.578;2022-08-19T13:40:16;11.40;;;8.52;;
43891;SDS011;29555;45.350;5.578;2022-08-19T13:42:44;16.55;;;11.20;;
43891;SDS011;29555;45.350;5.578;2022-08-19T13:45:12;17.42;;;9.20;;
43891;SDS011;29555;45.350;5.578;2022-08-19T13:47:40;10.80;;;8.90;;
43891;SDS011;29555;45.350;5.578;2022-08-19T13:50:08;16.52;;;9.10;;
43891;SDS011;29555;45.350;5.578;2022-08-19T13:52:38;12.23;;;9.55;;
43891;SDS011;29555;45.350;5.578;2022-08-19T13:55:05;16.27;;;9.82;;
43891;SDS011;29555;45.350;5.578;2022-08-19T13:57:32;9.60;;;8.30;;
43891;SDS011;29555;45.350;5.578;2022-08-19T13:59:58;12.80;;;9.73;;
43891;SDS011;29555;45.350;5.578;2022-08-19T14:02:24;13.82;;;9.65;;
43891;SDS011;29555;45.350;5.578;2022-08-19T14:04:50;15.55;;;10.27;;
43891;SDS011;29555;45.350;5.578;2022-08-19T14:07:15;17.60;;;9.68;;
43891;SDS011;29555;45.350;5.578;2022-08-19T14:09:40;15.00;;;9.95;;
43891;SDS011;29555;45.350;5.578;2022-08-19T14:12:06;14.95;;;9.32;;
43891;SDS011;29555;45.350;5.578;2022-08-19T14:14:32;18.52;;;9.18;;
43891;SDS011;29555;45.350;5.578;2022-08-19T14:17:05;14.27;;;8.93;;
43891;SDS011;29555;45.350;5.578;2022-08-19T14:19:31;15.80;;;8.48;;
43891;SDS011;29555;45.350;5.578;2022-08-19T14:21:57;7.93;;;6.93;;
43891;SDS011;29555;45.350;5.578;2022-08-19T14:24:22;14.40;;;9.07;;
43891;SDS011;29555;45.350;5.578;2022-08-19T14:26:48;10.68;;;8.65;;
43891;SDS011;29555;45.350;5.578;2022-08-19T14:29:13;10.75;;;9.57;;
43891;SDS011;29555;45.350;5.578;2022-08-19T14:31:39;12.85;;;8.77;;
43891;SDS011;29555;45.350;5.578;2022-08-19T14:34:07;8.70;;;7.82;;
43891;SDS011;29555;45.350;5.578;2022-08-19T14:36:34;11.10;;;8.98;;
43891;SDS011;29555;45.350;5.578;2022-08-19T14:39:00;12.70;;;8.52;;
43891;SDS011;29555;45.350;5.578;2022-08-19T14:41:26;11.00;;;8.57;;
43891;SDS011;29555;45.350;5.578;2022-08-19T14:43:52;11.65;;;8.00;;
43891;SDS011;29555;45.350;5.578;2022-08-19T14:46:19;12.98;;;7.57;;
43891;SDS011;29555;45.350;5.578;2022-08-19T14:48:48;9.48;;;7.53;;
43891;SDS011;29555;45.350;5.578;2022-08-19T14:51:14;13.38;;;8.55;;
43891;SDS011;29555;45.350;5.578;2022-08-19T14:53:40;11.95;;;7.55;;
43891;SDS011;29555;45.350;5.578;2022-08-19T14:56:07;11.23;;;7.82;;
43891;SDS011;29555;45.350;5.578;2022-08-19T14:58:37;11.05;;;8.77;;
43891;SDS011;29555;45.350;5.578;2022-08-19T15:01:06;9.15;;;7.97;;